createdAt,value
2022-11-19T00:02:18.537Z,1.40
2022-11-19T00:04:48.020Z,1.70
2022-11-19T00:07:17.713Z,1.30
2022-11-19T00:09:47.164Z,1.40
2022-11-19T00:12:34.440Z,1.37
2022-11-19T00:15:04.021Z,1.40
2022-11-19T00:17:33.474Z,1.10
2022-11-19T00:20:02.919Z,1.10
2022-11-19T00:22:32.373Z,1.40
2022-11-19T00:25:01.827Z,1.30
2022-11-19T00:27:32.373Z,1.33
2022-11-19T00:30:05.461Z,1.30
2022-11-19T00:32:33.577Z,1.30
2022-11-19T00:35:03.032Z,1.60
2022-11-19T00:37:32.488Z,1.20
2022-11-19T00:40:01.939Z,1.13
2022-11-19T00:42:31.394Z,1.40
2022-11-19T00:45:01.006Z,1.43
2022-11-19T00:47:30.471Z,1.50
2022-11-19T00:49:59.957Z,1.27
2022-11-19T00:52:29.431Z,2.00
2022-11-19T00:54:58.864Z,1.80
2022-11-19T00:57:28.420Z,1.80
2022-11-19T00:59:57.858Z,1.40
2022-11-19T01:02:27.317Z,1.70
2022-11-19T01:04:56.765Z,1.80
2022-11-19T01:07:26.251Z,1.57
2022-11-19T01:09:55.662Z,1.63
2022-11-19T01:12:25.155Z,1.60
2022-11-19T01:14:54.597Z,1.27
2022-11-19T01:17:24.069Z,1.40
2022-11-19T01:19:53.510Z,1.20
2022-11-19T01:22:22.965Z,1.43
2022-11-19T01:24:52.434Z,1.40
2022-11-19T01:27:21.894Z,1.40
2022-11-19T01:29:51.341Z,1.33
2022-11-19T01:32:20.817Z,1.63
2022-11-19T01:34:51.229Z,1.57
2022-11-19T01:37:20.691Z,1.30
2022-11-19T01:39:50.198Z,1.30
2022-11-19T01:42:47.669Z,1.00
2022-11-19T01:45:40.316Z,1.60
2022-11-19T01:48:29.028Z,1.60
2022-11-19T01:51:12.081Z,2.10
2022-11-19T01:53:44.913Z,1.43
2022-11-19T01:56:15.362Z,1.87
2022-11-19T01:58:49.438Z,1.60
2022-11-19T02:01:20.755Z,1.75
2022-11-19T02:03:53.172Z,1.73
2022-11-19T02:06:23.049Z,1.53
2022-11-19T02:08:53.121Z,1.70
2022-11-19T02:12:03.927Z,1.67
2022-11-19T02:15:07.965Z,1.10
2022-11-19T02:17:59.510Z,1.40
2022-11-19T02:21:09.671Z,1.50
2022-11-19T02:24:10.875Z,1.60
2022-11-19T02:27:16.855Z,1.13
2022-11-19T02:30:05.660Z,1.00
2022-11-19T02:33:13.849Z,1.10
2022-11-19T02:36:02.060Z,1.43
2022-11-19T02:38:45.049Z,1.57
2022-11-19T02:41:36.881Z,1.50
2022-11-19T02:44:46.725Z,1.43
2022-11-19T02:47:32.489Z,1.50
2022-11-19T02:50:11.781Z,1.50
2022-11-19T02:52:43.659Z,1.57
2022-11-19T02:55:19.829Z,1.63
2022-11-19T02:58:15.706Z,1.50
2022-11-19T03:01:07.371Z,1.60
2022-11-19T03:03:55.024Z,1.70
2022-11-19T03:06:28.705Z,1.63
2022-11-19T03:08:58.170Z,1.70
2022-11-19T03:11:33.198Z,1.43
2022-11-19T03:14:40.068Z,1.70
2022-11-19T03:17:22.668Z,2.10
2022-11-19T03:20:17.583Z,2.30
2022-11-19T03:22:51.719Z,1.80
2022-11-19T03:25:40.209Z,1.60
2022-11-19T03:28:19.735Z,2.00
2022-11-19T03:30:52.192Z,2.03
2022-11-19T03:33:37.343Z,1.70
2022-11-19T03:36:13.937Z,2.03
2022-11-19T03:38:48.017Z,1.67
2022-11-19T03:41:21.142Z,1.63
2022-11-19T03:44:00.477Z,1.50
2022-11-19T03:46:34.635Z,1.70
2022-11-19T03:49:07.199Z,1.70
2022-11-19T03:51:46.680Z,1.50
2022-11-19T03:54:16.637Z,1.57
2022-11-19T03:56:48.598Z,1.73
2022-11-19T03:59:19.321Z,1.67
2022-11-19T04:01:53.208Z,1.98
2022-11-19T04:04:37.853Z,1.80
2022-11-19T04:07:16.293Z,1.80
2022-11-19T04:09:46.575Z,1.80
2022-11-19T04:12:25.608Z,1.90
2022-11-19T04:14:55.236Z,1.53
2022-11-19T04:17:24.739Z,1.70
2022-11-19T04:19:54.194Z,1.80
2022-11-19T04:22:23.640Z,1.70
2022-11-19T04:24:53.093Z,2.13
2022-11-19T04:27:22.536Z,1.77
2022-11-19T04:29:51.991Z,1.57
2022-11-19T04:32:21.601Z,1.53
2022-11-19T04:34:51.061Z,1.90
2022-11-19T04:37:20.503Z,1.70
2022-11-19T04:39:49.962Z,1.50
2022-11-19T04:42:19.472Z,1.57
2022-11-19T04:44:48.927Z,2.00
2022-11-19T04:47:18.367Z,2.40
2022-11-19T04:49:47.829Z,1.97
2022-11-19T04:52:17.265Z,3.13
2022-11-19T04:54:46.725Z,3.70
2022-11-19T04:57:16.163Z,3.20
2022-11-19T04:59:45.801Z,2.83
2022-11-19T05:02:15.470Z,2.55
2022-11-19T05:04:44.933Z,2.33
2022-11-19T05:07:14.489Z,2.80
2022-11-19T05:09:44.047Z,2.07
2022-11-19T05:12:13.491Z,1.90
2022-11-19T05:14:42.955Z,2.00
2022-11-19T05:17:12.395Z,2.10
2022-11-19T05:19:41.855Z,2.10
2022-11-19T05:22:11.295Z,2.40
2022-11-19T05:24:40.759Z,2.10
2022-11-19T05:27:10.300Z,2.40
2022-11-19T05:29:39.938Z,1.77
2022-11-19T05:32:09.553Z,1.93
2022-11-19T05:34:39.020Z,2.20
2022-11-19T05:37:08.609Z,2.90
2022-11-19T05:39:38.074Z,2.90
2022-11-19T05:42:07.515Z,2.70
2022-11-19T05:44:37.187Z,2.80
2022-11-19T05:47:06.782Z,2.60
2022-11-19T05:49:36.296Z,2.10
2022-11-19T05:52:06.075Z,1.77
2022-11-19T05:54:35.536Z,1.83
2022-11-19T05:57:05.590Z,1.97
2022-11-19T05:59:38.449Z,2.20
2022-11-19T06:02:06.746Z,2.23
2022-11-19T06:04:36.681Z,2.30
2022-11-19T06:07:07.143Z,1.63
2022-11-19T06:09:36.712Z,1.83
2022-11-19T06:12:06.508Z,2.17
2022-11-19T06:14:35.968Z,2.23
2022-11-19T06:17:05.752Z,2.00
2022-11-19T06:19:35.237Z,1.40
2022-11-19T06:22:05.390Z,1.60
2022-11-19T06:24:34.839Z,1.57
2022-11-19T06:27:04.470Z,1.60
2022-11-19T06:29:33.932Z,1.63
2022-11-19T06:32:03.373Z,1.47
2022-11-19T06:34:32.835Z,1.70
2022-11-19T06:37:02.291Z,1.90
2022-11-19T06:39:31.857Z,2.10
2022-11-19T06:42:02.948Z,1.77
2022-11-19T06:44:32.388Z,1.80
2022-11-19T06:47:01.835Z,1.67
2022-11-19T06:49:31.291Z,1.50
2022-11-19T06:52:00.739Z,1.73
2022-11-19T06:54:30.199Z,2.00
2022-11-19T06:56:59.653Z,2.10
2022-11-19T06:59:29.941Z,1.70
2022-11-19T07:01:59.425Z,2.47
2022-11-19T07:04:28.911Z,2.00
2022-11-19T07:06:58.567Z,1.90
2022-11-19T07:09:28.071Z,1.90
2022-11-19T07:11:57.523Z,2.00
2022-11-19T07:14:26.978Z,2.47
2022-11-19T07:16:58.269Z,2.27
2022-11-19T07:19:28.062Z,2.23
2022-11-19T07:21:57.511Z,2.07
2022-11-19T07:24:26.970Z,1.90
2022-11-19T07:26:57.760Z,2.10
2022-11-19T07:29:27.218Z,2.10
2022-11-19T07:31:56.661Z,2.23
2022-11-19T07:34:26.214Z,2.00
2022-11-19T07:36:55.666Z,2.10
2022-11-19T07:39:25.125Z,1.87
2022-11-19T07:42:12.215Z,2.40
2022-11-19T07:44:41.870Z,2.40
2022-11-19T07:47:11.320Z,2.20
2022-11-19T07:49:40.771Z,2.30
2022-11-19T07:52:10.223Z,2.17
2022-11-19T07:54:39.679Z,2.10
2022-11-19T07:57:09.568Z,1.90
2022-11-19T07:59:39.018Z,1.90
2022-11-19T08:02:10.055Z,2.35
2022-11-19T08:04:39.828Z,2.10
2022-11-19T08:07:09.915Z,1.87
2022-11-19T08:09:39.413Z,1.70
2022-11-19T08:12:09.102Z,1.97
2022-11-19T08:14:38.560Z,1.80
2022-11-19T08:17:25.256Z,2.07
2022-11-19T08:19:54.715Z,1.40
2022-11-19T08:22:24.155Z,1.80
2022-11-19T08:24:53.607Z,2.00
2022-11-19T08:27:23.069Z,2.00
2022-11-19T08:29:52.509Z,1.90
2022-11-19T08:32:21.959Z,1.70
2022-11-19T08:34:51.587Z,2.10
2022-11-19T08:37:21.054Z,1.70
2022-11-19T08:39:50.507Z,1.70
2022-11-19T08:42:30.145Z,1.47
2022-11-19T08:44:59.610Z,1.50
2022-11-19T08:47:29.067Z,1.60
2022-11-19T08:49:58.529Z,1.50
2022-11-19T08:52:27.962Z,1.73
2022-11-19T08:54:57.422Z,1.27
2022-11-19T08:57:26.855Z,1.33
2022-11-19T09:00:00.142Z,1.57
2022-11-19T09:02:27.842Z,1.50
2022-11-19T09:04:57.330Z,1.73
2022-11-19T09:07:26.864Z,1.60
2022-11-19T09:09:56.296Z,1.57
2022-11-19T09:12:25.800Z,1.80
2022-11-19T09:14:55.300Z,1.47
2022-11-19T09:17:25.087Z,1.60
2022-11-19T09:19:55.299Z,1.50
2022-11-19T09:22:24.767Z,1.20
2022-11-19T09:24:54.201Z,1.27
2022-11-19T09:27:23.635Z,1.23
2022-11-19T09:29:53.093Z,1.33
2022-11-19T09:32:25.528Z,1.23
2022-11-19T09:34:54.045Z,2.00
2022-11-19T09:37:23.486Z,1.93
2022-11-19T09:39:52.937Z,1.60
2022-11-19T09:42:35.721Z,1.53
2022-11-19T09:45:28.871Z,1.50
2022-11-19T09:48:11.720Z,1.47
2022-11-19T09:51:04.816Z,1.30
2022-11-19T09:53:53.811Z,1.20
2022-11-19T09:56:36.378Z,1.30
2022-11-19T09:59:25.513Z,1.20
2022-11-19T10:01:55.964Z,1.50
2022-11-19T10:04:29.779Z,1.70
2022-11-19T10:07:16.185Z,1.50
2022-11-19T10:10:34.244Z,1.30
2022-11-19T10:13:30.711Z,1.10
2022-11-19T10:16:10.828Z,1.30
2022-11-19T10:19:10.539Z,1.40
2022-11-19T10:22:11.178Z,1.30
2022-11-19T10:24:47.751Z,1.40
2022-11-19T10:27:39.477Z,1.47
2022-11-19T10:30:20.877Z,1.00
2022-11-19T10:33:26.466Z,1.60
2022-11-19T10:36:13.326Z,1.87
2022-11-19T10:39:03.901Z,1.77
2022-11-19T10:41:56.428Z,2.00
2022-11-19T10:44:40.668Z,1.50
2022-11-19T10:47:29.282Z,1.60
2022-11-19T10:49:59.097Z,1.90
2022-11-19T10:52:45.780Z,1.50
2022-11-19T10:55:43.371Z,1.50
2022-11-19T10:58:36.746Z,1.40
2022-11-19T11:01:10.480Z,2.00
2022-11-19T11:03:53.399Z,1.43
2022-11-19T11:06:22.850Z,2.50
2022-11-19T11:08:57.475Z,2.10
2022-11-19T11:11:49.768Z,1.93
2022-11-19T11:14:41.449Z,2.20
2022-11-19T11:17:29.603Z,2.00
2022-11-19T11:20:20.990Z,2.33
2022-11-19T11:23:06.304Z,2.60
2022-11-19T11:25:35.802Z,2.10
2022-11-19T11:28:16.115Z,1.57
2022-11-19T11:31:08.073Z,1.70
2022-11-19T11:33:43.313Z,1.80
2022-11-19T11:36:19.839Z,1.93
2022-11-19T11:38:56.338Z,1.27
2022-11-19T11:44:21.626Z,2.03
2022-11-19T11:46:58.734Z,1.63
2022-11-19T11:49:41.813Z,1.87
2022-11-19T11:52:24.631Z,1.53
2022-11-19T11:55:04.137Z,1.70
2022-11-19T11:57:37.007Z,2.30
2022-11-19T12:00:33.723Z,1.47
2022-11-19T12:03:20.754Z,1.77
2022-11-19T12:06:13.970Z,1.77
2022-11-19T12:09:10.494Z,2.00
2022-11-19T12:11:56.235Z,1.60
2022-11-19T12:14:38.910Z,2.10
2022-11-19T12:17:40.107Z,1.80
2022-11-19T12:20:31.843Z,1.80
2022-11-19T12:23:47.728Z,2.20
2022-11-19T12:26:38.950Z,1.80
2022-11-19T12:29:33.505Z,2.00
2022-11-19T12:32:25.452Z,2.20
2022-11-19T12:35:25.151Z,1.70
2022-11-19T12:38:11.237Z,2.13
2022-11-19T12:41:17.902Z,2.27
2022-11-19T12:43:57.877Z,1.60
2022-11-19T12:46:34.763Z,2.13
2022-11-19T12:49:42.227Z,2.20
2022-11-19T12:52:47.690Z,1.60
2022-11-19T12:55:45.626Z,1.40
2022-11-19T12:58:36.367Z,1.80
2022-11-19T13:01:16.454Z,1.50
2022-11-19T13:04:14.439Z,1.47
2022-11-19T13:06:57.682Z,1.53
2022-11-19T13:09:46.487Z,1.20
2022-11-19T13:12:23.224Z,1.47
2022-11-19T13:15:00.357Z,1.17
2022-11-19T13:17:40.497Z,1.67
2022-11-19T13:20:17.175Z,1.67
2022-11-19T13:22:50.323Z,1.20
2022-11-19T13:25:45.279Z,1.57
2022-11-19T13:28:49.658Z,1.90
2022-11-19T13:31:27.257Z,1.70
2022-11-19T13:34:01.316Z,1.50
2022-11-19T13:37:02.083Z,1.70
2022-11-19T13:39:38.920Z,1.90
2022-11-19T13:42:28.870Z,1.47
2022-11-19T13:44:59.502Z,1.70
2022-11-19T13:47:34.382Z,1.70
2022-11-19T13:50:14.046Z,1.60
2022-11-19T13:53:02.767Z,0.97
2022-11-19T13:55:36.883Z,1.80
2022-11-19T13:58:38.381Z,2.00
2022-11-19T14:01:31.790Z,1.50
2022-11-19T14:04:23.958Z,1.57
2022-11-19T14:07:33.895Z,1.50
2022-11-19T14:10:25.828Z,1.33
2022-11-19T14:13:27.196Z,1.83
2022-11-19T14:16:42.730Z,1.47
2022-11-19T14:19:37.982Z,1.30
2022-11-19T14:22:55.273Z,1.33
2022-11-19T14:26:06.509Z,1.20
2022-11-19T14:28:54.000Z,1.60
2022-11-19T14:31:23.466Z,1.33
2022-11-19T14:34:00.989Z,1.30
2022-11-19T14:36:49.350Z,1.40
2022-11-19T14:39:25.853Z,1.20
2022-11-19T14:42:22.955Z,1.13
2022-11-19T14:45:09.177Z,1.30
2022-11-19T14:47:44.420Z,1.37
2022-11-19T14:50:31.893Z,1.33
2022-11-19T14:53:03.059Z,1.70
2022-11-19T14:55:35.496Z,1.73
2022-11-19T14:58:09.667Z,1.87
2022-11-19T15:00:42.900Z,2.00
2022-11-19T15:03:28.696Z,1.77
2022-11-19T15:05:59.841Z,1.43
2022-11-19T15:08:45.743Z,1.80
2022-11-19T15:11:17.096Z,1.47
2022-11-19T15:13:49.568Z,1.50
2022-11-19T15:16:29.841Z,1.47
2022-11-19T15:19:15.409Z,1.40
2022-11-19T15:22:18.442Z,1.43
2022-11-19T15:25:12.292Z,1.13
2022-11-19T15:27:52.374Z,1.17
2022-11-19T15:30:28.612Z,1.50
2022-11-19T15:33:31.417Z,1.67
2022-11-19T15:36:35.338Z,1.27
2022-11-19T15:39:27.484Z,1.93
2022-11-19T15:42:01.772Z,1.60
2022-11-19T15:44:43.958Z,1.37
2022-11-19T15:47:41.939Z,1.80
2022-11-19T15:50:21.487Z,1.63
2022-11-19T15:53:04.156Z,1.57
2022-11-19T15:55:34.055Z,1.30
2022-11-19T15:58:08.343Z,1.20
2022-11-19T16:00:47.052Z,1.20
2022-11-19T16:03:18.681Z,1.80
2022-11-19T16:06:01.862Z,1.50
2022-11-19T16:08:32.123Z,1.33
2022-11-19T16:11:20.992Z,1.30
2022-11-19T16:14:13.556Z,1.57
2022-11-19T16:17:00.747Z,1.53
2022-11-19T16:19:30.224Z,1.50
2022-11-19T16:22:06.050Z,1.20
2022-11-19T16:24:53.795Z,1.03
2022-11-19T16:27:26.313Z,1.63
2022-11-19T16:29:56.232Z,2.00
2022-11-19T16:32:28.197Z,1.70
2022-11-19T16:35:13.999Z,1.90
2022-11-19T16:37:43.543Z,1.47
2022-11-19T16:40:16.819Z,1.60
2022-11-19T16:42:56.774Z,1.40
2022-11-19T16:45:30.703Z,2.17
2022-11-19T16:48:03.116Z,0.90
2022-11-19T16:50:38.928Z,1.33
2022-11-19T16:53:10.124Z,1.40
2022-11-19T16:55:43.023Z,1.17
2022-11-19T16:58:20.533Z,1.30
2022-11-19T17:00:55.367Z,1.10
2022-11-19T17:03:35.329Z,1.30
2022-11-19T17:06:07.353Z,1.53
2022-11-19T17:08:40.175Z,1.40
2022-11-19T17:11:38.151Z,1.13
2022-11-19T17:14:23.555Z,0.93
2022-11-19T17:16:55.176Z,1.30
2022-11-19T17:19:36.812Z,1.20
2022-11-19T17:22:21.495Z,1.30
2022-11-19T17:24:51.350Z,1.33
2022-11-19T17:27:31.196Z,1.37
2022-11-19T17:30:14.697Z,1.40
2022-11-19T17:32:48.835Z,1.27
2022-11-19T17:35:45.701Z,1.17
2022-11-19T17:38:23.786Z,1.67
2022-11-19T17:40:59.907Z,1.30
2022-11-19T17:43:56.312Z,1.43
2022-11-19T17:46:30.018Z,1.30
2022-11-19T17:48:59.590Z,1.40
2022-11-19T17:51:29.151Z,1.20
2022-11-19T17:53:58.615Z,1.63
2022-11-19T17:56:30.557Z,1.20
2022-11-19T17:59:00.378Z,1.30
2022-11-19T18:01:30.215Z,1.20
2022-11-19T18:03:59.783Z,1.40
2022-11-19T18:06:29.224Z,1.33
2022-11-19T18:08:58.856Z,1.80
2022-11-19T18:11:28.614Z,1.13
2022-11-19T18:14:03.414Z,1.00
2022-11-19T18:16:35.053Z,1.40
2022-11-19T18:19:12.797Z,1.43
2022-11-19T18:21:43.571Z,1.40
2022-11-19T18:24:13.157Z,1.40
2022-11-19T18:26:42.593Z,1.43
2022-11-19T18:29:13.005Z,1.10
2022-11-19T18:31:50.439Z,1.37
2022-11-19T18:34:24.181Z,1.20
2022-11-19T18:36:54.260Z,1.63
2022-11-19T18:39:24.191Z,1.50
2022-11-19T18:41:53.760Z,1.20
2022-11-19T18:44:35.136Z,1.20
2022-11-19T18:47:10.015Z,1.00
2022-11-19T18:49:40.679Z,1.00
2022-11-19T18:52:15.193Z,1.30
2022-11-19T18:54:45.222Z,1.47
2022-11-19T18:57:14.876Z,1.37
2022-11-19T18:59:44.344Z,1.10
2022-11-19T19:02:13.925Z,0.90
2022-11-19T19:04:47.134Z,1.30
2022-11-19T19:07:14.968Z,1.00
2022-11-19T19:09:44.439Z,1.40
2022-11-19T19:12:20.501Z,1.40
2022-11-19T19:14:51.835Z,1.40
2022-11-19T19:17:21.291Z,1.23
2022-11-19T19:19:50.752Z,1.20
2022-11-19T19:22:20.564Z,1.30
2022-11-19T19:24:53.909Z,1.37
2022-11-19T19:27:21.250Z,1.50
2022-11-19T19:29:50.702Z,1.07
2022-11-19T19:32:20.407Z,1.40
2022-11-19T19:34:50.025Z,1.17
2022-11-19T19:37:19.552Z,1.20
2022-11-19T19:39:49.024Z,1.40
2022-11-19T19:42:18.454Z,1.53
2022-11-19T19:44:47.930Z,1.60
2022-11-19T19:47:17.365Z,1.50
2022-11-19T19:49:46.862Z,1.60
2022-11-19T19:52:16.362Z,1.60
2022-11-19T19:54:45.890Z,1.33
2022-11-19T19:57:16.292Z,1.50
2022-11-19T19:59:45.753Z,2.00
2022-11-19T20:02:16.018Z,2.10
2022-11-19T20:04:45.516Z,2.00
2022-11-19T20:07:14.972Z,1.90
2022-11-19T20:09:44.397Z,1.50
2022-11-19T20:12:13.886Z,1.73
2022-11-19T20:14:43.331Z,1.50
2022-11-19T20:17:12.774Z,1.70
2022-11-19T20:19:42.283Z,1.40
2022-11-19T20:22:11.725Z,1.50
2022-11-19T20:24:41.171Z,1.40
2022-11-19T20:27:10.619Z,1.13
2022-11-19T20:29:40.079Z,1.77
2022-11-19T20:32:09.686Z,1.70
2022-11-19T20:34:39.147Z,1.73
2022-11-19T20:37:08.586Z,1.20
2022-11-19T20:39:38.028Z,1.40
2022-11-19T20:42:25.448Z,1.50
2022-11-19T20:44:55.900Z,1.73
2022-11-19T20:47:25.323Z,1.70
2022-11-19T20:49:54.771Z,1.53
2022-11-19T20:52:24.223Z,1.50
2022-11-19T20:54:53.761Z,1.30
2022-11-19T20:57:23.202Z,1.20
2022-11-19T20:59:52.650Z,1.30
2022-11-19T21:02:22.124Z,2.20
2022-11-19T21:04:51.625Z,1.60
2022-11-19T21:07:21.120Z,1.27
2022-11-19T21:09:50.595Z,1.90
2022-11-19T21:12:20.035Z,1.50
2022-11-19T21:14:49.520Z,1.50
2022-11-19T21:17:18.956Z,1.47
2022-11-19T21:19:48.797Z,1.40
2022-11-19T21:22:37.670Z,1.30
2022-11-19T21:25:12.365Z,1.33
2022-11-19T21:27:39.379Z,1.37
2022-11-19T21:30:10.777Z,1.27
2022-11-19T21:32:40.216Z,1.53
2022-11-19T21:35:09.903Z,1.47
2022-11-19T21:37:39.346Z,1.13
2022-11-19T21:40:09.789Z,1.37
2022-11-19T21:42:39.232Z,1.60
2022-11-19T21:45:09.796Z,1.17
2022-11-19T21:47:40.813Z,1.40
2022-11-19T21:50:10.334Z,1.60
2022-11-19T21:52:39.784Z,1.37
2022-11-19T21:55:09.661Z,1.30
2022-11-19T21:57:39.107Z,1.40
2022-11-19T22:00:10.490Z,1.30
2022-11-19T22:02:39.927Z,1.37
2022-11-19T22:05:09.903Z,0.90
2022-11-19T22:07:39.442Z,1.30
2022-11-19T22:10:09.271Z,1.20
2022-11-19T22:12:38.714Z,2.20
2022-11-19T22:15:09.855Z,2.20
2022-11-19T22:17:40.125Z,2.00
2022-11-19T22:20:10.095Z,1.60
2022-11-19T22:22:41.218Z,1.80
2022-11-19T22:25:10.922Z,1.43
2022-11-19T22:27:41.946Z,1.60
2022-11-19T22:30:12.790Z,1.70
2022-11-19T22:32:42.221Z,1.30
2022-11-19T22:35:11.740Z,2.07
2022-11-19T22:37:41.174Z,1.73
2022-11-19T22:40:11.858Z,1.60
2022-11-19T22:42:41.356Z,1.50
2022-11-19T22:45:11.233Z,1.50
2022-11-19T22:47:40.663Z,1.27
2022-11-19T22:50:10.317Z,1.50
2022-11-19T22:52:39.749Z,1.53
2022-11-19T22:55:10.076Z,1.13
2022-11-19T22:57:39.513Z,1.20
2022-11-19T23:00:13.597Z,1.53
2022-11-19T23:02:43.031Z,1.30
2022-11-19T23:05:12.485Z,1.63
2022-11-19T23:07:42.001Z,1.67
2022-11-19T23:10:11.616Z,1.33
2022-11-19T23:12:59.047Z,1.30
2022-11-19T23:15:28.507Z,1.13
2022-11-19T23:17:57.932Z,1.40
2022-11-19T23:20:27.457Z,1.40
2022-11-19T23:22:56.889Z,1.70
2022-11-19T23:25:26.350Z,1.63
2022-11-19T23:27:55.781Z,1.40
2022-11-19T23:30:25.414Z,1.70
2022-11-19T23:32:54.844Z,1.60
2022-11-19T23:35:24.293Z,1.33
2022-11-19T23:37:53.725Z,1.47
2022-11-19T23:40:23.187Z,1.67
2022-11-19T23:42:56.064Z,1.40
2022-11-19T23:45:25.527Z,1.30
2022-11-19T23:47:54.960Z,1.30
2022-11-19T23:50:24.411Z,1.17
2022-11-19T23:52:53.840Z,1.40
2022-11-19T23:55:23.292Z,1.60
2022-11-19T23:57:52.729Z,2.00
